Time;durP1;ratioP1;P1;durP2;ratioP2;P2;SDS_P1;SDS_P2;PMS_P1;PMS_P2;Temp;Humidity;BMP_temperature;BMP_pressure;BME280_temperature;BME280_humidity;BME280_pressure;Samples;Min_cycle;Max_cycle;Signal;HPM_P1;HPM_P2
2023/01/15 00:02:20;;;;;;;0.20;0.20;;;11.40;65.60;;;;;;4865230;29;20443;-90
2023/01/15 00:04:50;;;;;;;0.38;0.38;;;11.00;67.10;;;;;;4865568;29;20032;-93
2023/01/15 00:07:16;;;;;;;0.40;0.40;;;11.00;66.70;;;;;;4865505;29;20120;-93
2023/01/15 00:09:42;;;;;;;0.20;0.20;;;11.40;66.10;;;;;;4867111;29;20092;-89
2023/01/15 00:12:07;;;;;;;0.30;0.30;;;11.70;64.70;;;;;;4864939;29;20524;-93
2023/01/15 00:14:33;;;;;;;0.25;0.25;;;11.70;64.40;;;;;;4866817;29;20060;-96
2023/01/15 00:16:59;;;;;;;0.20;0.20;;;11.80;64.50;;;;;;4868888;29;20126;-90
2023/01/15 00:19:27;;;;;;;0.22;0.22;;;11.60;64.90;;;;;;4865835;29;20025;-95
2023/01/15 00:21:57;;;;;;;0.30;0.30;;;11.30;65.00;;;;;;4881460;29;20059;-90
2023/01/15 00:29:59;;;;;;;0.30;0.30;;;11.30;65.70;;;;;;4880507;29;20445;-95
2023/01/15 00:32:28;;;;;;;0.20;0.20;;;11.50;65.00;;;;;;4880254;29;20029;-94
2023/01/15 00:35:04;;;;;;;0.30;0.30;;;11.50;65.50;;;;;;4865903;29;20037;-93
2023/01/15 00:37:30;;;;;;;0.20;0.20;;;11.00;65.60;;;;;;4866530;29;20029;-95
2023/01/15 00:39:55;;;;;;;0.22;0.22;;;10.80;67.00;;;;;;4864539;29;20033;-95
2023/01/15 00:42:21;;;;;;;0.20;0.20;;;10.90;66.50;;;;;;4864792;29;20053;-93
2023/01/15 00:44:47;;;;;;;0.30;0.30;;;10.90;66.80;;;;;;4864617;29;20142;-90
2023/01/15 00:47:16;;;;;;;0.20;0.20;;;11.00;66.90;;;;;;4864485;29;20385;-94
2023/01/15 00:49:42;;;;;;;0.20;0.20;;;10.90;66.40;;;;;;4865154;29;20033;-94
2023/01/15 00:52:09;;;;;;;0.20;0.20;;;10.70;66.70;;;;;;4866749;29;20101;-92
2023/01/15 00:54:44;;;;;;;0.22;0.22;;;10.40;67.20;;;;;;4866042;29;20069;-89
2023/01/15 00:57:10;;;;;;;0.25;0.25;;;10.20;69.10;;;;;;4883195;29;20400;-91
2023/01/15 00:59:36;;;;;;;0.30;0.30;;;9.80;69.80;;;;;;4866872;29;20029;-89
2023/01/15 01:02:01;;;;;;;0.40;0.40;;;9.70;70.00;;;;;;4866705;29;20029;-95
2023/01/15 01:04:27;;;;;;;0.20;0.20;;;9.40;71.30;;;;;;4864782;29;20136;-90
2023/01/15 01:06:53;;;;;;;0.20;0.20;;;9.40;71.00;;;;;;4864309;29;20033;-88
2023/01/15 01:09:19;;;;;;;0.30;0.30;;;9.70;70.20;;;;;;4862025;29;20389;-90
2023/01/15 01:11:44;;;;;;;0.30;0.30;;;9.80;70.40;;;;;;4864128;29;20093;-95
2023/01/15 01:14:17;;;;;;;0.30;0.30;;;10.00;70.10;;;;;;4863215;29;20056;-92
2023/01/15 01:16:43;;;;;;;0.30;0.30;;;9.80;69.80;;;;;;4864212;29;20055;-89
2023/01/15 01:19:12;;;;;;;0.30;0.30;;;9.70;70.80;;;;;;4862933;29;20472;-89
2023/01/15 01:21:41;;;;;;;0.30;0.30;;;9.90;70.60;;;;;;4866117;29;20128;-91
2023/01/15 01:24:10;;;;;;;0.30;0.30;;;9.80;69.50;;;;;;4866689;29;20528;-87
2023/01/15 01:26:36;;;;;;;0.30;0.30;;;9.30;71.10;;;;;;4867153;29;20039;-95
2023/01/15 01:29:02;;;;;;;0.20;0.20;;;8.90;71.70;;;;;;4863579;29;20120;-92
2023/01/15 01:31:31;;;;;;;0.20;0.20;;;8.90;73.20;;;;;;4845630;29;20473;-94
2023/01/15 01:33:58;;;;;;;0.30;0.30;;;9.10;73.00;;;;;;4845960;29;20069;-91
2023/01/15 01:36:39;;;;;;;0.20;0.20;;;9.20;71.60;;;;;;4845544;29;20026;-88
2023/01/15 01:39:06;;;;;;;0.30;0.30;;;9.50;71.60;;;;;;4857347;29;20038;-92
2023/01/15 01:41:32;;;;;;;0.20;0.20;;;9.60;71.10;;;;;;4845924;29;20029;-88
2023/01/15 01:44:00;;;;;;;0.20;0.20;;;9.70;70.00;;;;;;4858680;29;20033;-93
2023/01/15 01:46:34;;;;;;;0.22;0.22;;;9.80;69.00;;;;;;4864513;29;20036;-95
2023/01/15 01:49:11;;;;;;;0.30;0.30;;;9.60;69.90;;;;;;4863844;29;20025;-91
2023/01/15 01:51:49;;;;;;;0.30;0.30;;;9.50;70.10;;;;;;4864501;29;20128;-94
2023/01/15 01:54:35;;;;;;;;;;;;;;;;;;;;;
2023/01/15 01:57:09;;;;;;;0.20;0.20;;;9.70;69.20;;;;;;4881092;29;20033;-94
2023/01/15 01:59:38;;;;;;;0.28;0.28;;;9.90;68.60;;;;;;4847548;29;20040;-95
2023/01/15 02:02:14;;;;;;;0.20;0.20;;;9.50;69.30;;;;;;4851279;29;20025;-92
2023/01/15 02:05:09;;;;;;;0.30;0.30;;;9.50;70.00;;;;;;4851212;29;20485;-92
2023/01/15 02:07:35;;;;;;;0.30;0.30;;;9.50;69.90;;;;;;4865679;29;20133;-93
2023/01/15 02:10:04;;;;;;;0.20;0.20;;;9.20;71.00;;;;;;4863789;29;20475;-90
2023/01/15 02:12:38;;;;;;;0.30;0.30;;;9.10;70.40;;;;;;4868274;29;20049;-92
2023/01/15 02:15:14;;;;;;;0.25;0.25;;;9.30;70.50;;;;;;4864731;29;20084;-91
2023/01/15 02:17:54;;;;;;;0.30;0.30;;;9.50;70.20;;;;;;4864004;29;20042;-95
2023/01/15 02:20:38;;;;;;;0.20;0.20;;;9.50;70.10;;;;;;4865168;29;20025;-94
2023/01/15 02:23:25;;;;;;;0.30;0.30;;;9.80;69.80;;;;;;4864068;29;20030;-90
2023/01/15 02:26:06;;;;;;;0.22;0.22;;;9.90;69.70;;;;;;4865715;29;20062;-94
2023/01/15 02:28:41;;;;;;;0.30;0.30;;;9.50;69.00;;;;;;4864937;29;20034;-95
2023/01/15 02:31:16;;;;;;;0.30;0.30;;;9.30;70.30;;;;;;4864550;29;20389;-94
2023/01/15 02:33:57;;;;;;;0.30;0.30;;;9.20;70.80;;;;;;4865509;29;20026;-94
2023/01/15 02:36:26;;;;;;;0.32;0.32;;;9.00;70.60;;;;;;4866097;29;20031;-95
2023/01/15 02:38:57;;;;;;;0.20;0.20;;;8.80;70.60;;;;;;4865337;29;20034;-96
2023/01/15 02:41:32;;;;;;;0.32;0.32;;;8.50;71.80;;;;;;4880188;29;20474;-90
2023/01/15 02:44:01;;;;;;;0.30;0.30;;;8.60;72.60;;;;;;4880729;29;20057;-93
2023/01/15 02:46:30;;;;;;;0.30;0.30;;;8.80;72.50;;;;;;4879664;29;20363;-90
2023/01/15 02:48:58;;;;;;;0.30;0.30;;;9.10;71.00;;;;;;4869100;29;20030;-88
2023/01/15 02:51:29;;;;;;;0.30;0.30;;;9.40;70.70;;;;;;4862710;29;20080;-90
2023/01/15 02:54:00;;;;;;;0.30;0.30;;;9.70;68.90;;;;;;4861411;29;20122;-92
2023/01/15 02:56:28;;;;;;;;;;;9.60;69.00;;;;;;4861965;29;20035;-92
2023/01/15 02:59:01;;;;;;;0.30;0.30;;;9.40;69.50;;;;;;4861970;29;19908;-94
2023/01/15 03:01:41;;;;;;;0.30;0.30;;;9.40;69.20;;;;;;4861944;29;20034;-86
2023/01/15 03:04:26;;;;;;;0.28;0.28;;;9.50;69.10;;;;;;4863747;29;20028;-95
2023/01/15 03:06:59;;;;;;;0.20;0.20;;;9.40;68.70;;;;;;4863901;29;20470;-92
2023/01/15 03:09:37;;;;;;;0.20;0.20;;;8.90;70.90;;;;;;4861537;29;20057;-94
2023/01/15 03:12:11;;;;;;;0.35;0.35;;;8.90;71.30;;;;;;4860259;29;20030;-94
2023/01/15 03:14:49;;;;;;;0.30;0.30;;;9.20;70.80;;;;;;4861450;29;20073;-88
2023/01/15 03:17:23;;;;;;;0.30;0.30;;;9.20;70.20;;;;;;4867704;29;20099;-94
2023/01/15 03:20:16;;;;;;;0.20;0.20;;;9.60;69.50;;;;;;4879384;29;20041;-91
2023/01/15 03:22:46;;;;;;;0.30;0.30;;;9.60;68.60;;;;;;4879731;29;20047;-95
2023/01/15 03:25:25;;;;;;;0.30;0.30;;;9.60;68.90;;;;;;4863581;29;20026;-94
2023/01/15 03:27:54;;;;;;;0.30;0.30;;;9.50;68.90;;;;;;4862847;29;20040;-89
2023/01/15 03:30:21;;;;;;;0.20;0.20;;;9.10;70.20;;;;;;4864025;29;20116;-87
2023/01/15 03:32:47;;;;;;;0.20;0.20;;;8.70;71.80;;;;;;4863718;29;20046;-90
2023/01/15 03:35:54;;;;;;;0.22;0.22;;;8.70;71.60;;;;;;4880318;29;20069;-93
2023/01/15 03:38:26;;;;;;;0.30;0.30;;;9.00;71.30;;;;;;4882309;29;20038;-88
2023/01/15 03:41:26;;;;;;;0.20;0.20;;;8.80;71.20;;;;;;4879130;29;20033;-90
2023/01/15 03:44:04;;;;;;;0.20;0.20;;;9.20;71.40;;;;;;4878157;29;20029;-95
2023/01/15 03:46:49;;;;;;;0.30;0.30;;;9.60;69.00;;;;;;4877741;29;20281;-88
2023/01/15 03:49:46;;;;;;;0.30;0.30;;;10.10;68.30;;;;;;4880218;29;20033;-89
2023/01/15 03:52:24;;;;;;;0.20;0.20;;;10.50;66.80;;;;;;4879765;29;20033;-95
2023/01/15 03:55:12;;;;;;;0.30;0.30;;;10.50;66.40;;;;;;4878914;29;20128;-94
2023/01/15 03:57:52;;;;;;;0.30;0.30;;;10.10;66.40;;;;;;4877158;29;20438;-89
2023/01/15 04:00:25;;;;;;;0.28;0.28;;;10.00;66.40;;;;;;4860522;29;20029;-89
2023/01/15 04:02:54;;;;;;;0.30;0.30;;;9.70;67.60;;;;;;4861002;29;20072;-94
2023/01/15 04:05:20;;;;;;;0.40;0.40;;;9.60;69.10;;;;;;4860798;29;20359;-94
2023/01/15 04:07:48;;;;;;;0.20;0.20;;;9.60;68.20;;;;;;4859341;29;20089;-88
2023/01/15 04:10:14;;;;;;;0.20;0.20;;;9.70;68.80;;;;;;4863046;29;20034;-90
2023/01/15 04:12:40;;;;;;;0.30;0.30;;;9.90;67.20;;;;;;4863029;29;20050;-87
2023/01/15 04:15:06;;;;;;;0.30;0.30;;;9.90;68.60;;;;;;4863183;29;20057;-94
2023/01/15 04:17:32;;;;;;;0.30;0.30;;;9.90;67.30;;;;;;4861186;29;20029;-95
2023/01/15 04:19:57;;;;;;;0.20;0.20;;;9.60;68.10;;;;;;4863210;29;20086;-86
2023/01/15 04:22:25;;;;;;;0.30;0.30;;;9.70;67.60;;;;;;4864703;29;20022;-95
2023/01/15 04:24:53;;;;;;;0.30;0.30;;;9.70;68.60;;;;;;4852086;29;20041;-95
2023/01/15 04:27:19;;;;;;;0.30;0.30;;;9.80;67.10;;;;;;4862113;29;20113;-92
2023/01/15 04:29:45;;;;;;;0.30;0.30;;;9.70;68.20;;;;;;4878741;29;20076;-92
2023/01/15 04:32:10;;;;;;;0.32;0.32;;;9.40;68.90;;;;;;4877966;29;20562;-94
2023/01/15 04:34:36;;;;;;;0.25;0.25;;;9.60;68.20;;;;;;4876284;29;20632;-87
2023/01/15 04:37:08;;;;;;;0.30;0.30;;;9.70;67.50;;;;;;4862776;29;20034;-93
2023/01/15 04:39:34;;;;;;;0.40;0.40;;;9.30;69.10;;;;;;4862693;29;20026;-95
2023/01/15 04:44:44;;;;;;;0.30;0.30;;;9.40;69.00;;;;;;4863810;29;20036;-89
2023/01/15 04:47:09;;;;;;;0.30;0.30;;;9.40;68.80;;;;;;4877491;29;20021;-90
2023/01/15 04:49:35;;;;;;;0.20;0.20;;;9.40;68.80;;;;;;4876995;29;20033;-95
2023/01/15 04:52:01;;;;;;;0.20;0.20;;;9.20;69.40;;;;;;4878527;29;20030;-94
2023/01/15 04:54:29;;;;;;;0.20;0.20;;;9.00;69.00;;;;;;4877951;29;20034;-89
2023/01/15 04:56:55;;;;;;;0.30;0.30;;;8.60;71.20;;;;;;4861224;29;20086;-88
2023/01/15 04:59:23;;;;;;;0.20;0.20;;;8.80;71.40;;;;;;4878409;29;20033;-89
2023/01/15 05:01:49;;;;;;;0.20;0.20;;;9.40;69.30;;;;;;4877360;29;20058;-87
2023/01/15 05:04:15;;;;;;;0.40;0.40;;;9.40;70.40;;;;;;4878316;29;20029;-90
2023/01/15 05:06:45;;;;;;;0.30;0.30;;;9.10;69.70;;;;;;4878506;29;20469;-88
2023/01/15 05:09:13;;;;;;;0.32;0.32;;;9.00;71.00;;;;;;4879181;29;20093;-94
2023/01/15 05:11:39;;;;;;;0.28;0.28;;;8.90;70.30;;;;;;4861364;29;20037;-93
2023/01/15 05:14:06;;;;;;;0.20;0.20;;;8.90;70.50;;;;;;4861647;29;20060;-95
2023/01/15 05:16:37;;;;;;;0.30;0.30;;;8.80;70.60;;;;;;4862459;29;20029;-93
2023/01/15 05:19:06;;;;;;;0.20;0.20;;;8.50;70.60;;;;;;4845014;29;20493;-88
2023/01/15 05:21:35;;;;;;;0.30;0.30;;;8.50;72.20;;;;;;4858629;29;20385;-88
2023/01/15 05:24:02;;;;;;;0.25;0.25;;;8.90;70.60;;;;;;4858298;29;20041;-95
2023/01/15 05:26:31;;;;;;;0.30;0.30;;;8.90;69.20;;;;;;4843016;29;20034;-94
2023/01/15 05:28:58;;;;;;;0.30;0.30;;;8.80;69.80;;;;;;4858946;29;20128;-90
2023/01/15 05:31:24;;;;;;;0.25;0.25;;;8.80;69.90;;;;;;4877841;29;20404;-89
2023/01/15 05:33:52;;;;;;;0.20;0.20;;;8.80;69.80;;;;;;4877928;29;20029;-93
2023/01/15 05:36:21;;;;;;;0.20;0.20;;;8.70;70.00;;;;;;4880457;29;20061;-91
2023/01/15 05:38:47;;;;;;;0.22;0.22;;;8.70;70.70;;;;;;4878843;29;20036;-92
2023/01/15 05:44:05;;;;;;;0.30;0.30;;;9.60;67.90;;;;;;4866176;29;20597;-90
2023/01/15 05:46:32;;;;;;;0.32;0.32;;;9.40;68.80;;;;;;4879839;29;20041;-94
2023/01/15 05:49:00;;;;;;;0.30;0.30;;;9.10;69.20;;;;;;4879986;29;20021;-94
2023/01/15 05:51:25;;;;;;;0.20;0.20;;;9.10;69.30;;;;;;4879106;29;20026;-88
2023/01/15 05:53:51;;;;;;;0.30;0.30;;;9.40;69.10;;;;;;4879779;29;20058;-92
2023/01/15 05:56:17;;;;;;;0.30;0.30;;;9.30;67.90;;;;;;4863251;29;20044;-94
2023/01/15 05:58:43;;;;;;;0.20;0.20;;;9.40;69.60;;;;;;4863808;29;20062;-90
2023/01/15 06:01:12;;;;;;;0.30;0.30;;;9.10;69.50;;;;;;4863221;29;20065;-88
2023/01/15 06:03:38;;;;;;;0.30;0.30;;;9.00;70.60;;;;;;4879713;29;20063;-91
2023/01/15 06:06:04;;;;;;;0.20;0.20;;;9.10;70.20;;;;;;4879212;29;20029;-94
2023/01/15 06:08:29;;;;;;;0.30;0.30;;;9.20;69.80;;;;;;4864534;29;20078;-89
2023/01/15 06:10:55;;;;;;;0.30;0.30;;;9.20;69.70;;;;;;4863725;29;20033;-90
2023/01/15 06:13:21;;;;;;;0.30;0.30;;;9.10;69.90;;;;;;4864330;29;20101;-89
2023/01/15 06:15:47;;;;;;;0.30;0.30;;;9.50;68.00;;;;;;4862795;29;20516;-91
2023/01/15 06:18:15;;;;;;;0.30;0.30;;;9.90;67.90;;;;;;4878782;29;20026;-91
2023/01/15 06:20:41;;;;;;;0.30;0.30;;;10.30;66.10;;;;;;4874452;29;20120;-90
2023/01/15 06:23:10;;;;;;;0.40;0.40;;;10.20;66.60;;;;;;4860269;29;20034;-90
2023/01/15 06:25:45;;;;;;;0.30;0.30;;;10.30;66.60;;;;;;4864151;29;20025;-93
2023/01/15 06:28:12;;;;;;;0.22;0.22;;;10.40;65.30;;;;;;4864192;29;20036;-89
2023/01/15 06:30:39;;;;;;;0.20;0.20;;;10.30;65.80;;;;;;4863671;29;20025;-87
2023/01/15 06:33:06;;;;;;;0.30;0.30;;;10.00;66.80;;;;;;4863359;29;20417;-88
2023/01/15 06:35:32;;;;;;;0.30;0.30;;;10.10;66.30;;;;;;4859541;29;20056;-94
2023/01/15 06:37:58;;;;;;;0.30;0.30;;;10.30;66.00;;;;;;4861343;29;20032;-89
2023/01/15 06:40:25;;;;;;;0.22;0.22;;;10.30;66.00;;;;;;4860516;29;20117;-88
2023/01/15 06:48:36;;;;;;;0.30;0.30;;;10.00;67.10;;;;;;4824243;29;20045;-91
2023/01/15 06:51:01;;;;;;;0.30;0.30;;;10.30;67.00;;;;;;4810491;29;20488;-89
2023/01/15 06:53:27;;;;;;;0.20;0.20;;;10.20;66.90;;;;;;4809795;29;20045;-93
2023/01/15 06:55:53;;;;;;;0.38;0.38;;;9.90;67.00;;;;;;4810247;29;20133;-94
2023/01/15 06:58:21;;;;;;;0.30;0.30;;;9.80;67.70;;;;;;4809986;29;20045;-91
2023/01/15 07:00:53;;;;;;;0.30;0.30;;;9.80;68.20;;;;;;4792454;29;20693;-89
2023/01/15 07:03:22;;;;;;;0.30;0.30;;;10.20;67.30;;;;;;4802606;29;20040;-93
2023/01/15 07:05:48;;;;;;;0.30;0.30;;;10.30;65.60;;;;;;4809804;29;20034;-91
2023/01/15 07:08:16;;;;;;;0.30;0.30;;;10.30;66.70;;;;;;4809145;29;20448;-88
2023/01/15 07:10:42;;;;;;;0.30;0.30;;;10.30;67.00;;;;;;4809311;29;20030;-89
2023/01/15 07:13:09;;;;;;;0.20;0.20;;;10.70;65.30;;;;;;4807726;29;20039;-89
2023/01/15 07:15:37;;;;;;;0.30;0.30;;;10.70;65.00;;;;;;4791782;29;20047;-94
2023/01/15 07:18:04;;;;;;;0.30;0.30;;;10.60;65.70;;;;;;4791500;29;20034;-87
2023/01/15 07:20:29;;;;;;;0.20;0.20;;;10.90;65.20;;;;;;4789987;29;20035;-86
2023/01/15 07:22:55;;;;;;;0.30;0.30;;;11.00;64.30;;;;;;4831894;29;20034;-88
2023/01/15 07:25:21;;;;;;;0.30;0.30;;;10.90;65.10;;;;;;4843548;29;20030;-87
2023/01/15 07:27:47;;;;;;;0.20;0.20;;;11.00;64.60;;;;;;4843332;29;20048;-87
2023/01/15 07:30:13;;;;;;;0.30;0.30;;;11.00;64.80;;;;;;4843163;29;20102;-90
2023/01/15 07:32:40;;;;;;;0.30;0.30;;;11.00;64.80;;;;;;4860114;29;20029;-94
2023/01/15 07:35:05;;;;;;;0.40;0.40;;;11.00;65.20;;;;;;4856515;29;20453;-89
2023/01/15 07:37:31;;;;;;;0.20;0.20;;;11.00;64.70;;;;;;4857621;29;20549;-96
2023/01/15 07:39:57;;;;;;;0.28;0.28;;;11.00;65.50;;;;;;4860862;29;20092;-93
2023/01/15 07:50:40;;;;;;;0.25;0.25;;;10.50;66.30;;;;;;4878738;29;20040;-94
2023/01/15 07:53:22;;;;;;;0.30;0.30;;;10.80;65.80;;;;;;4860993;29;20026;-94
2023/01/15 07:55:48;;;;;;;0.30;0.30;;;10.90;65.50;;;;;;4841563;29;20042;-92
2023/01/15 07:58:47;;;;;;;;;;;;;;;;;;;;;
2023/01/15 08:02:03;;;;;;;0.20;0.20;;;10.60;66.50;;;;;;4892420;24;20047;-91
2023/01/15 08:05:48;;;;;;;0.20;0.20;;;10.40;67.00;;;;;;4897343;29;20040;-92
2023/01/15 08:08:20;;;;;;;0.35;0.35;;;10.10;67.00;;;;;;4768746;30;20036;-91
2023/01/15 08:16:14;;;;;;;0.30;0.30;;;11.00;65.80;;;;;;4751177;30;20124;-84
2023/01/15 08:18:40;;;;;;;0.25;0.25;;;10.70;66.70;;;;;;4735315;30;20067;-90
2023/01/15 08:21:05;;;;;;;0.30;0.30;;;10.70;66.70;;;;;;4735789;30;20040;-91
2023/01/15 08:23:31;;;;;;;0.30;0.30;;;10.50;67.40;;;;;;4735635;30;20035;-94
2023/01/15 08:26:00;;;;;;;0.20;0.20;;;10.70;67.20;;;;;;4736683;30;20040;-92
2023/01/15 08:28:26;;;;;;;0.30;0.30;;;11.10;66.40;;;;;;4731375;30;20068;-85
2023/01/15 08:30:52;;;;;;;0.28;0.28;;;11.50;65.00;;;;;;4725267;30;20024;-92
2023/01/15 08:33:18;;;;;;;0.30;0.30;;;11.70;64.30;;;;;;4736295;30;20046;-92
2023/01/15 08:35:44;;;;;;;0.20;0.20;;;11.90;63.50;;;;;;4733814;30;20040;-94
2023/01/15 08:38:10;;;;;;;0.30;0.30;;;11.90;63.20;;;;;;4776395;29;20041;-93
2023/01/15 08:40:57;;;;;;;0.22;0.22;;;12.00;63.60;;;;;;4845350;29;20025;-90
2023/01/15 08:43:22;;;;;;;0.30;0.30;;;12.10;63.10;;;;;;4865456;29;20025;-92
2023/01/15 08:45:48;;;;;;;0.20;0.20;;;12.20;63.10;;;;;;4863884;29;20036;-93
2023/01/15 08:48:14;;;;;;;0.28;0.28;;;12.30;62.70;;;;;;4864911;29;20043;-90
2023/01/15 08:50:39;;;;;;;0.30;0.30;;;12.20;62.60;;;;;;4859038;29;20029;-86
2023/01/15 08:53:05;;;;;;;0.22;0.22;;;11.90;64.20;;;;;;4863888;29;20373;-85
2023/01/15 08:55:31;;;;;;;0.20;0.20;;;12.20;63.40;;;;;;4863800;29;20077;-88
2023/01/15 08:57:57;;;;;;;0.28;0.28;;;12.20;62.90;;;;;;4864371;29;20123;-87
2023/01/15 09:00:23;;;;;;;0.30;0.30;;;12.00;63.70;;;;;;4850668;29;20049;-88
2023/01/15 09:02:52;;;;;;;0.20;0.20;;;12.20;63.30;;;;;;4847114;29;20017;-89
2023/01/15 09:05:18;;;;;;;0.20;0.20;;;12.30;64.10;;;;;;4864127;29;20068;-93
2023/01/15 09:07:44;;;;;;;0.20;0.20;;;12.10;63.80;;;;;;4868983;29;20109;-95
2023/01/15 09:10:16;;;;;;;0.40;0.40;;;12.20;63.80;;;;;;4872274;29;20113;-93
2023/01/15 09:12:41;;;;;;;0.20;0.20;;;12.10;63.20;;;;;;4875452;29;20014;-96
2023/01/15 09:15:09;;;;;;;0.30;0.30;;;11.80;64.00;;;;;;4872147;29;20056;-91
2023/01/15 09:17:39;;;;;;;0.25;0.25;;;11.50;65.50;;;;;;4873474;29;20032;-94
2023/01/15 09:20:06;;;;;;;0.30;0.30;;;11.40;65.50;;;;;;4859291;29;20029;-95
2023/01/15 09:22:32;;;;;;;0.30;0.30;;;11.60;66.00;;;;;;4866460;29;20357;-88
2023/01/15 09:24:58;;;;;;;0.30;0.30;;;11.90;65.20;;;;;;4865787;29;20544;-90
2023/01/15 09:27:25;;;;;;;0.30;0.30;;;12.30;64.20;;;;;;4865388;29;20044;-89
2023/01/15 09:29:54;;;;;;;0.30;0.30;;;12.60;63.20;;;;;;4867547;29;20037;-89
2023/01/15 09:32:19;;;;;;;0.20;0.20;;;12.50;63.40;;;;;;4869524;29;20025;-96
2023/01/15 09:34:45;;;;;;;0.30;0.30;;;12.20;64.10;;;;;;4868190;29;20048;-92
2023/01/15 09:37:11;;;;;;;0.30;0.30;;;12.20;64.20;;;;;;4867960;29;20025;-89
2023/01/15 09:39:37;;;;;;;0.20;0.20;;;12.10;65.10;;;;;;4868489;29;20057;-87
2023/01/15 09:42:24;;;;;;;0.20;0.20;;;12.20;64.50;;;;;;4867430;29;20376;-88
2023/01/15 09:45:13;;;;;;;0.20;0.20;;;12.40;64.30;;;;;;4866555;29;20441;-89
2023/01/15 09:47:48;;;;;;;0.20;0.20;;;12.50;63.80;;;;;;4866888;29;20480;-90
2023/01/15 09:50:38;;;;;;;0.25;0.25;;;12.90;63.90;;;;;;4866760;29;20076;-87
2023/01/15 09:53:27;;;;;;;0.40;0.40;;;12.80;63.00;;;;;;4866573;29;20033;-87
2023/01/15 09:55:54;;;;;;;0.30;0.30;;;12.40;64.40;;;;;;4868874;29;20377;-88
2023/01/15 09:58:25;;;;;;;0.40;0.40;;;12.40;64.60;;;;;;4867360;29;20029;-90
2023/01/15 10:00:53;;;;;;;0.30;0.30;;;12.60;63.50;;;;;;4866087;29;20053;-92
2023/01/15 10:03:28;;;;;;;0.30;0.30;;;12.50;63.60;;;;;;4867060;29;20070;-94
2023/01/15 10:05:56;;;;;;;0.40;0.40;;;12.30;64.30;;;;;;4868519;29;20057;-92
2023/01/15 10:08:29;;;;;;;0.28;0.28;;;12.30;64.20;;;;;;4867606;29;20021;-89
2023/01/15 10:11:16;;;;;;;0.38;0.38;;;12.40;64.90;;;;;;4869662;29;20473;-88
2023/01/15 10:13:49;;;;;;;0.28;0.28;;;11.80;66.10;;;;;;4793852;29;20031;-89
2023/01/15 10:16:23;;;;;;;0.20;0.20;;;11.70;65.70;;;;;;4794175;29;20087;-86
2023/01/15 10:18:50;;;;;;;0.20;0.20;;;11.70;65.80;;;;;;4792557;29;20033;-86
2023/01/15 10:22:02;;;;;;;0.20;0.20;;;11.70;66.50;;;;;;4793268;29;20022;-87
2023/01/15 10:24:37;;;;;;;0.20;0.20;;;11.70;66.80;;;;;;4792603;29;20046;-88
2023/01/15 10:27:20;;;;;;;0.25;0.25;;;12.10;65.50;;;;;;4792159;29;20033;-87
2023/01/15 10:29:56;;;;;;;0.30;0.30;;;12.10;65.50;;;;;;3797452;29;10000728;-89
2023/01/15 10:32:39;;;;;;;0.35;0.35;;;12.10;65.10;;;;;;4793125;29;20038;-95
2023/01/15 10:35:08;;;;;;;0.25;0.25;;;12.00;65.40;;;;;;4792497;29;20171;-90
2023/01/15 10:37:59;;;;;;;0.28;0.28;;;12.00;65.40;;;;;;4792869;29;20426;-87
2023/01/15 10:41:00;;;;;;;0.20;0.20;;;12.30;66.20;;;;;;4794114;29;20035;-90
2023/01/15 10:43:44;;;;;;;0.30;0.30;;;12.60;64.80;;;;;;4787886;29;20541;-88
2023/01/15 10:46:21;;;;;;;0.35;0.35;;;12.60;64.20;;;;;;4796546;29;20039;-88
2023/01/15 10:48:54;;;;;;;0.32;0.32;;;12.80;65.00;;;;;;4794805;29;20027;-88
2023/01/15 10:51:27;;;;;;;0.28;0.28;;;12.80;63.90;;;;;;4848780;29;20484;-93
2023/01/15 10:54:11;;;;;;;0.30;0.30;;;12.80;63.90;;;;;;4867917;29;20456;-88
2023/01/15 10:56:46;;;;;;;0.20;0.20;;;12.80;63.50;;;;;;4867874;29;20021;-91
2023/01/15 10:59:21;;;;;;;0.40;0.40;;;13.00;63.40;;;;;;4885578;29;20032;-87
2023/01/15 11:01:51;;;;;;;0.22;0.22;;;13.00;62.90;;;;;;4871570;29;20049;-87
2023/01/15 11:04:17;;;;;;;0.28;0.28;;;13.40;62.60;;;;;;4873393;29;20222;-87
2023/01/15 11:06:42;;;;;;;0.20;0.20;;;13.60;61.60;;;;;;4871405;29;20123;-92
2023/01/15 11:09:19;;;;;;;0.20;0.20;;;13.30;62.30;;;;;;4865883;29;20093;-90
2023/01/15 11:20:27;;;;;;;0.30;0.30;;;12.90;62.90;;;;;;4885216;29;20665;-87
2023/01/15 11:22:55;;;;;;;0.20;0.20;;;12.80;64.00;;;;;;4866017;29;20025;-89
2023/01/15 11:25:28;;;;;;;0.20;0.20;;;13.40;63.20;;;;;;4865874;29;20028;-91
2023/01/15 11:27:53;;;;;;;0.30;0.30;;;13.60;61.50;;;;;;4866706;29;20099;-88
2023/01/15 11:30:36;;;;;;;0.30;0.30;;;13.70;61.70;;;;;;4866283;29;20041;-89
2023/01/15 11:33:03;;;;;;;0.20;0.20;;;14.00;60.70;;;;;;4867672;29;20112;-89
2023/01/15 11:35:33;;;;;;;0.30;0.30;;;13.90;61.10;;;;;;4867391;29;20056;-92
2023/01/15 11:38:13;;;;;;;0.30;0.30;;;13.80;60.90;;;;;;4869228;29;20073;-91
2023/01/15 11:40:49;;;;;;;0.30;0.30;;;14.10;60.90;;;;;;4865898;29;20033;-88
2023/01/15 11:52:07;;;;;;;0.17;0.17;;;14.70;58.90;;;;;;4882526;29;20080;-88
2023/01/15 11:54:37;;;;;;;0.20;0.20;;;14.60;59.30;;;;;;4865205;29;20118;-87
2023/01/15 11:57:05;;;;;;;0.20;0.20;;;14.10;60.00;;;;;;4866781;29;20071;-90
2023/01/15 11:59:31;;;;;;;0.30;0.30;;;14.20;60.20;;;;;;4865141;29;20037;-89
2023/01/15 12:02:10;;;;;;;0.30;0.30;;;14.40;60.00;;;;;;4864897;29;20075;-86
2023/01/15 12:04:51;;;;;;;0.32;0.32;;;14.60;59.60;;;;;;4870523;29;20033;-90
2023/01/15 12:07:23;;;;;;;0.30;0.30;;;14.70;58.30;;;;;;4885735;29;20029;-90
2023/01/15 12:10:03;;;;;;;0.30;0.30;;;14.70;59.10;;;;;;4866801;29;20084;-88
2023/01/15 12:12:32;;;;;;;;;;;14.40;59.60;;;;;;4866508;29;20379;-89
2023/01/15 12:15:18;;;;;;;0.30;0.30;;;14.40;59.80;;;;;;4865026;29;19984;-89
2023/01/15 12:18:03;;;;;;;0.25;0.25;;;14.30;59.70;;;;;;4865360;29;20025;-87
2023/01/15 12:20:32;;;;;;;0.40;0.40;;;14.20;60.40;;;;;;4865297;29;20028;-87
2023/01/15 12:23:24;;;;;;;0.20;0.20;;;14.50;60.20;;;;;;4883297;29;20460;-91
2023/01/15 12:26:16;;;;;;;0.20;0.20;;;14.70;59.00;;;;;;4866060;29;20417;-86
2023/01/15 12:28:49;;;;;;;0.30;0.30;;;14.90;58.60;;;;;;4864726;29;20044;-89
2023/01/15 12:31:28;;;;;;;0.30;0.30;;;14.50;58.70;;;;;;4869250;29;20025;-87
2023/01/15 12:34:08;;;;;;;0.30;0.30;;;14.30;59.70;;;;;;4869928;29;20120;-95
2023/01/15 12:37:12;;;;;;;0.22;0.22;;;14.10;59.30;;;;;;4865700;29;20035;-96
2023/01/15 12:39:58;;;;;;;0.30;0.30;;;13.70;60.00;;;;;;4794092;29;20046;-96
2023/01/15 12:45:24;;;;;;;0.20;0.20;;;14.50;59.20;;;;;;4806930;29;20034;-90
2023/01/15 12:48:02;;;;;;;0.40;0.40;;;14.70;58.30;;;;;;4805274;29;20428;-88
2023/01/15 12:50:46;;;;;;;0.22;0.22;;;14.10;59.10;;;;;;4806407;29;20567;-87
2023/01/15 12:53:35;;;;;;;0.40;0.40;;;13.90;60.10;;;;;;4790924;29;20075;-87
2023/01/15 12:56:25;;;;;;;0.20;0.20;;;14.20;59.90;;;;;;4792394;29;20066;-87
2023/01/15 12:58:54;;;;;;;0.20;0.20;;;14.00;59.60;;;;;;4790921;29;20076;-87
2023/01/15 13:01:41;;;;;;;0.20;0.20;;;13.90;60.00;;;;;;4807366;29;20093;-88
2023/01/15 13:04:16;;;;;;;0.20;0.20;;;14.00;60.00;;;;;;4794201;29;20031;-86
2023/01/15 13:06:47;;;;;;;0.30;0.30;;;13.90;59.80;;;;;;4809386;29;20049;-87
2023/01/15 13:09:33;;;;;;;0.20;0.20;;;14.00;60.20;;;;;;4813146;29;20043;-86
2023/01/15 13:11:58;;;;;;;0.20;0.20;;;14.20;59.30;;;;;;4808939;29;20086;-87
2023/01/15 13:14:24;;;;;;;0.30;0.30;;;14.30;58.90;;;;;;4825772;29;20544;-88
2023/01/15 13:17:11;;;;;;;0.40;0.40;;;14.50;58.40;;;;;;4866509;29;20017;-86
2023/01/15 13:20:20;;;;;;;0.38;0.38;;;14.40;58.80;;;;;;4873374;29;20038;-88
2023/01/15 13:23:03;;;;;;;0.30;0.30;;;14.40;59.40;;;;;;4824792;29;20469;-89
2023/01/15 13:25:47;;;;;;;0.30;0.30;;;14.30;59.30;;;;;;4475512;29;10000272;-87
2023/01/15 13:35:12;;;;;;;0.38;0.38;;;14.50;58.80;;;;;;4838825;29;20042;-86
2023/01/15 13:37:44;;;;;;;0.30;0.30;;;14.80;58.70;;;;;;4823853;29;20036;-86
2023/01/15 13:40:34;;;;;;;0.30;0.30;;;14.70;58.60;;;;;;4825258;29;20026;-91
2023/01/15 13:43:01;;;;;;;0.20;0.20;;;14.90;58.80;;;;;;4828144;29;20457;-89
2023/01/15 13:45:37;;;;;;;0.30;0.30;;;15.10;57.90;;;;;;4846656;29;20026;-92
2023/01/15 13:48:06;;;;;;;0.30;0.30;;;14.60;58.40;;;;;;4829071;29;20022;-94
2023/01/15 13:50:39;;;;;;;0.30;0.30;;;14.20;59.40;;;;;;4827270;29;20034;-90
2023/01/15 13:53:21;;;;;;;0.30;0.30;;;14.30;59.50;;;;;;4841893;29;20018;-88
2023/01/15 13:55:57;;;;;;;0.30;0.30;;;14.40;59.10;;;;;;4825435;29;20058;-87
2023/01/15 13:58:28;;;;;;;0.20;0.20;;;14.00;59.80;;;;;;4830957;29;20090;-90
2023/01/15 14:01:19;;;;;;;0.30;0.30;;;13.90;60.20;;;;;;4845500;29;20529;-87
2023/01/15 14:04:03;;;;;;;;;;;14.10;60.70;;;;;;4829491;29;20495;-93
2023/01/15 14:06:42;;;;;;;0.30;0.30;;;14.40;60.00;;;;;;4829307;29;20019;-92
2023/01/15 14:09:33;;;;;;;0.22;0.22;;;14.40;60.50;;;;;;4825626;29;20026;-84
2023/01/15 14:12:20;;;;;;;0.30;0.30;;;14.50;60.00;;;;;;4811278;29;20031;-95
2023/01/15 14:15:08;;;;;;;0.20;0.20;;;14.50;59.70;;;;;;4811158;29;20034;-89
2023/01/15 14:18:12;;;;;;;0.30;0.30;;;14.60;59.70;;;;;;4799169;29;20375;-85
2023/01/15 14:21:04;;;;;;;0.20;0.20;;;14.70;59.60;;;;;;4794702;29;20083;-92